sensor_id;sensor_type;location;lat;lon;timestamp;P1;durP1;ratioP1;P2;durP2;ratioP2
84796;SDS011;75028;51.374;21.078;2024-03-17T00:01:00;8.27;;;3.30;;
84796;SDS011;75028;51.374;21.078;2024-03-17T00:03:49;10.75;;;3.67;;
84796;SDS011;75028;51.374;21.078;2024-03-17T00:06:15;11.07;;;3.50;;
84796;SDS011;75028;51.374;21.078;2024-03-17T00:08:42;7.32;;;3.42;;
84796;SDS011;75028;51.374;21.078;2024-03-17T00:11:09;6.43;;;3.80;;
84796;SDS011;75028;51.374;21.078;2024-03-17T00:13:35;7.97;;;3.60;;
84796;SDS011;75028;51.374;21.078;2024-03-17T00:16:01;7.88;;;3.20;;
84796;SDS011;75028;51.374;21.078;2024-03-17T00:18:27;7.93;;;3.42;;
84796;SDS011;75028;51.374;21.078;2024-03-17T00:20:54;9.18;;;3.15;;
84796;SDS011;75028;51.374;21.078;2024-03-17T00:23:20;9.43;;;3.28;;
84796;SDS011;75028;51.374;21.078;2024-03-17T00:28:12;8.90;;;3.03;;
84796;SDS011;75028;51.374;21.078;2024-03-17T00:30:38;8.98;;;3.45;;
84796;SDS011;75028;51.374;21.078;2024-03-17T00:33:04;8.13;;;3.40;;
84796;SDS011;75028;51.374;21.078;2024-03-17T00:35:30;8.48;;;3.58;;
84796;SDS011;75028;51.374;21.078;2024-03-17T00:37:56;7.03;;;3.10;;
84796;SDS011;75028;51.374;21.078;2024-03-17T00:40:24;9.10;;;2.92;;
84796;SDS011;75028;51.374;21.078;2024-03-17T00:42:50;8.07;;;3.50;;
84796;SDS011;75028;51.374;21.078;2024-03-17T00:45:16;19.67;;;3.33;;
84796;SDS011;75028;51.374;21.078;2024-03-17T00:47:42;7.88;;;2.60;;
84796;SDS011;75028;51.374;21.078;2024-03-17T00:50:10;9.82;;;2.60;;
84796;SDS011;75028;51.374;21.078;2024-03-17T00:52:37;14.82;;;3.88;;
84796;SDS011;75028;51.374;21.078;2024-03-17T00:57:29;6.53;;;2.33;;
84796;SDS011;75028;51.374;21.078;2024-03-17T00:59:55;11.15;;;2.88;;
84796;SDS011;75028;51.374;21.078;2024-03-17T01:02:21;10.73;;;3.50;;
84796;SDS011;75028;51.374;21.078;2024-03-17T01:07:14;10.55;;;2.83;;
84796;SDS011;75028;51.374;21.078;2024-03-17T01:09:40;13.55;;;2.72;;
84796;SDS011;75028;51.374;21.078;2024-03-17T01:12:06;9.63;;;2.50;;
84796;SDS011;75028;51.374;21.078;2024-03-17T01:14:33;12.23;;;3.25;;
84796;SDS011;75028;51.374;21.078;2024-03-17T01:16:59;9.43;;;3.30;;
84796;SDS011;75028;51.374;21.078;2024-03-17T01:19:26;10.40;;;2.83;;
84796;SDS011;75028;51.374;21.078;2024-03-17T01:21:52;8.30;;;3.08;;
84796;SDS011;75028;51.374;21.078;2024-03-17T01:24:18;13.48;;;3.40;;
84796;SDS011;75028;51.374;21.078;2024-03-17T01:26:44;8.82;;;3.90;;
84796;SDS011;75028;51.374;21.078;2024-03-17T01:29:11;8.18;;;3.08;;
84796;SDS011;75028;51.374;21.078;2024-03-17T01:31:37;13.32;;;3.55;;
84796;SDS011;75028;51.374;21.078;2024-03-17T01:34:03;7.97;;;3.17;;
84796;SDS011;75028;51.374;21.078;2024-03-17T01:36:29;15.85;;;3.90;;
84796;SDS011;75028;51.374;21.078;2024-03-17T01:38:55;14.30;;;4.20;;
84796;SDS011;75028;51.374;21.078;2024-03-17T01:41:21;11.85;;;3.45;;
84796;SDS011;75028;51.374;21.078;2024-03-17T01:43:47;14.52;;;4.18;;
84796;SDS011;75028;51.374;21.078;2024-03-17T01:46:14;11.45;;;3.42;;
84796;SDS011;75028;51.374;21.078;2024-03-17T01:48:43;9.60;;;3.08;;
84796;SDS011;75028;51.374;21.078;2024-03-17T01:51:11;14.77;;;3.63;;
84796;SDS011;75028;51.374;21.078;2024-03-17T01:53:41;18.65;;;3.88;;
84796;SDS011;75028;51.374;21.078;2024-03-17T01:56:09;10.52;;;4.47;;
84796;SDS011;75028;51.374;21.078;2024-03-17T01:58:37;13.45;;;3.75;;
84796;SDS011;75028;51.374;21.078;2024-03-17T02:01:03;7.60;;;3.17;;
84796;SDS011;75028;51.374;21.078;2024-03-17T02:03:30;10.82;;;4.07;;
84796;SDS011;75028;51.374;21.078;2024-03-17T02:05:57;11.95;;;3.58;;
84796;SDS011;75028;51.374;21.078;2024-03-17T02:08:25;13.07;;;3.47;;
84796;SDS011;75028;51.374;21.078;2024-03-17T02:13:23;13.00;;;3.30;;
84796;SDS011;75028;51.374;21.078;2024-03-17T02:15:49;10.45;;;3.65;;
84796;SDS011;75028;51.374;21.078;2024-03-17T02:18:15;9.00;;;3.20;;
84796;SDS011;75028;51.374;21.078;2024-03-17T02:20:41;9.77;;;3.20;;
84796;SDS011;75028;51.374;21.078;2024-03-17T02:23:26;11.48;;;3.47;;
84796;SDS011;75028;51.374;21.078;2024-03-17T02:25:52;13.82;;;3.78;;
84796;SDS011;75028;51.374;21.078;2024-03-17T02:28:19;8.00;;;2.90;;
84796;SDS011;75028;51.374;21.078;2024-03-17T02:30:45;10.32;;;2.92;;
84796;SDS011;75028;51.374;21.078;2024-03-17T02:33:11;12.90;;;3.13;;
84796;SDS011;75028;51.374;21.078;2024-03-17T02:35:37;17.15;;;4.50;;
84796;SDS011;75028;51.374;21.078;2024-03-17T02:38:03;20.27;;;4.88;;
84796;SDS011;75028;51.374;21.078;2024-03-17T02:40:29;10.50;;;3.35;;
84796;SDS011;75028;51.374;21.078;2024-03-17T02:42:56;11.20;;;3.45;;
84796;SDS011;75028;51.374;21.078;2024-03-17T02:45:22;12.38;;;4.05;;
84796;SDS011;75028;51.374;21.078;2024-03-17T02:47:48;13.07;;;3.53;;
84796;SDS011;75028;51.374;21.078;2024-03-17T02:50:15;10.55;;;4.07;;
84796;SDS011;75028;51.374;21.078;2024-03-17T02:52:42;14.98;;;3.67;;
84796;SDS011;75028;51.374;21.078;2024-03-17T02:55:08;11.65;;;3.95;;
84796;SDS011;75028;51.374;21.078;2024-03-17T02:57:34;14.23;;;4.03;;
84796;SDS011;75028;51.374;21.078;2024-03-17T03:02:29;8.60;;;3.47;;
84796;SDS011;75028;51.374;21.078;2024-03-17T03:04:55;14.02;;;4.00;;
84796;SDS011;75028;51.374;21.078;2024-03-17T03:07:22;8.93;;;3.33;;
84796;SDS011;75028;51.374;21.078;2024-03-17T03:12:15;8.60;;;3.50;;
84796;SDS011;75028;51.374;21.078;2024-03-17T03:14:41;10.23;;;4.53;;
84796;SDS011;75028;51.374;21.078;2024-03-17T03:17:07;23.05;;;4.50;;
84796;SDS011;75028;51.374;21.078;2024-03-17T03:19:33;12.77;;;4.15;;
84796;SDS011;75028;51.374;21.078;2024-03-17T03:24:26;16.15;;;3.90;;
84796;SDS011;75028;51.374;21.078;2024-03-17T03:26:52;8.80;;;4.28;;
84796;SDS011;75028;51.374;21.078;2024-03-17T03:29:18;17.15;;;5.25;;
84796;SDS011;75028;51.374;21.078;2024-03-17T03:31:45;12.43;;;4.60;;
84796;SDS011;75028;51.374;21.078;2024-03-17T03:34:11;10.00;;;3.97;;
84796;SDS011;75028;51.374;21.078;2024-03-17T03:36:38;11.77;;;4.32;;
84796;SDS011;75028;51.374;21.078;2024-03-17T03:39:04;14.88;;;4.82;;
84796;SDS011;75028;51.374;21.078;2024-03-17T03:41:31;10.75;;;4.43;;
84796;SDS011;75028;51.374;21.078;2024-03-17T03:44:01;13.02;;;4.70;;
84796;SDS011;75028;51.374;21.078;2024-03-17T03:46:27;13.32;;;5.07;;
84796;SDS011;75028;51.374;21.078;2024-03-17T03:48:53;14.95;;;6.00;;
84796;SDS011;75028;51.374;21.078;2024-03-17T03:51:19;16.13;;;6.10;;
84796;SDS011;75028;51.374;21.078;2024-03-17T03:53:45;14.20;;;4.88;;
84796;SDS011;75028;51.374;21.078;2024-03-17T03:56:11;13.13;;;5.03;;
84796;SDS011;75028;51.374;21.078;2024-03-17T03:58:38;12.20;;;5.68;;
84796;SDS011;75028;51.374;21.078;2024-03-17T04:01:06;14.20;;;5.80;;
84796;SDS011;75028;51.374;21.078;2024-03-17T04:03:36;10.57;;;5.10;;
84796;SDS011;75028;51.374;21.078;2024-03-17T04:06:09;16.25;;;5.18;;
84796;SDS011;75028;51.374;21.078;2024-03-17T04:08:36;21.05;;;5.15;;
84796;SDS011;75028;51.374;21.078;2024-03-17T04:11:07;20.55;;;6.00;;
84796;SDS011;75028;51.374;21.078;2024-03-17T04:16:00;13.48;;;5.97;;
84796;SDS011;75028;51.374;21.078;2024-03-17T04:18:31;18.63;;;5.50;;
84796;SDS011;75028;51.374;21.078;2024-03-17T04:21:03;19.52;;;6.43;;
84796;SDS011;75028;51.374;21.078;2024-03-17T04:23:30;16.17;;;5.47;;
84796;SDS011;75028;51.374;21.078;2024-03-17T04:25:58;19.42;;;6.13;;
84796;SDS011;75028;51.374;21.078;2024-03-17T04:28:25;17.67;;;5.50;;
84796;SDS011;75028;51.374;21.078;2024-03-17T04:30:51;13.98;;;6.40;;
84796;SDS011;75028;51.374;21.078;2024-03-17T04:33:17;13.38;;;5.68;;
84796;SDS011;75028;51.374;21.078;2024-03-17T04:35:43;16.60;;;5.85;;
84796;SDS011;75028;51.374;21.078;2024-03-17T04:38:09;14.38;;;5.85;;
84796;SDS011;75028;51.374;21.078;2024-03-17T04:40:39;19.38;;;6.53;;
84796;SDS011;75028;51.374;21.078;2024-03-17T04:43:07;14.52;;;5.85;;
84796;SDS011;75028;51.374;21.078;2024-03-17T04:45:33;13.77;;;6.68;;
84796;SDS011;75028;51.374;21.078;2024-03-17T04:48:00;20.67;;;6.25;;
84796;SDS011;75028;51.374;21.078;2024-03-17T04:50:26;19.52;;;7.22;;
84796;SDS011;75028;51.374;21.078;2024-03-17T04:52:57;18.60;;;8.50;;
84796;SDS011;75028;51.374;21.078;2024-03-17T04:55:27;12.60;;;7.25;;
84796;SDS011;75028;51.374;21.078;2024-03-17T04:57:54;18.70;;;7.75;;
84796;SDS011;75028;51.374;21.078;2024-03-17T05:00:20;22.42;;;8.00;;
84796;SDS011;75028;51.374;21.078;2024-03-17T05:02:46;23.40;;;8.35;;
84796;SDS011;75028;51.374;21.078;2024-03-17T05:05:13;22.92;;;8.95;;
84796;SDS011;75028;51.374;21.078;2024-03-17T05:07:38;23.27;;;8.15;;
84796;SDS011;75028;51.374;21.078;2024-03-17T05:10:05;15.88;;;7.88;;
84796;SDS011;75028;51.374;21.078;2024-03-17T05:12:32;17.15;;;6.45;;
84796;SDS011;75028;51.374;21.078;2024-03-17T05:14:58;21.15;;;6.85;;
84796;SDS011;75028;51.374;21.078;2024-03-17T05:17:24;16.77;;;5.60;;
84796;SDS011;75028;51.374;21.078;2024-03-17T05:19:50;14.07;;;6.10;;
84796;SDS011;75028;51.374;21.078;2024-03-17T05:22:16;12.60;;;6.00;;
84796;SDS011;75028;51.374;21.078;2024-03-17T05:24:42;18.77;;;5.70;;
84796;SDS011;75028;51.374;21.078;2024-03-17T05:27:08;10.18;;;5.03;;
84796;SDS011;75028;51.374;21.078;2024-03-17T05:29:35;13.05;;;5.03;;
84796;SDS011;75028;51.374;21.078;2024-03-17T05:32:03;12.98;;;5.40;;
84796;SDS011;75028;51.374;21.078;2024-03-17T05:34:30;8.43;;;4.55;;
84796;SDS011;75028;51.374;21.078;2024-03-17T05:36:57;16.50;;;6.03;;
84796;SDS011;75028;51.374;21.078;2024-03-17T05:39:23;17.20;;;5.07;;
84796;SDS011;75028;51.374;21.078;2024-03-17T05:41:49;16.77;;;5.85;;
84796;SDS011;75028;51.374;21.078;2024-03-17T05:44:17;15.07;;;6.55;;
84796;SDS011;75028;51.374;21.078;2024-03-17T05:46:43;12.57;;;5.72;;
84796;SDS011;75028;51.374;21.078;2024-03-17T05:49:09;15.15;;;5.78;;
84796;SDS011;75028;51.374;21.078;2024-03-17T05:54:02;15.10;;;5.82;;
84796;SDS011;75028;51.374;21.078;2024-03-17T05:56:28;15.23;;;5.57;;
84796;SDS011;75028;51.374;21.078;2024-03-17T06:01:20;17.08;;;5.25;;
84796;SDS011;75028;51.374;21.078;2024-03-17T06:03:48;12.93;;;4.70;;
84796;SDS011;75028;51.374;21.078;2024-03-17T06:06:14;12.75;;;5.75;;
84796;SDS011;75028;51.374;21.078;2024-03-17T06:08:40;17.50;;;4.93;;
84796;SDS011;75028;51.374;21.078;2024-03-17T06:11:06;14.70;;;5.38;;
84796;SDS011;75028;51.374;21.078;2024-03-17T06:13:34;17.83;;;5.20;;
84796;SDS011;75028;51.374;21.078;2024-03-17T06:16:03;9.30;;;4.20;;
84796;SDS011;75028;51.374;21.078;2024-03-17T06:18:30;12.13;;;5.20;;
84796;SDS011;75028;51.374;21.078;2024-03-17T06:20:56;9.43;;;4.53;;
84796;SDS011;75028;51.374;21.078;2024-03-17T06:23:26;10.75;;;4.47;;
84796;SDS011;75028;51.374;21.078;2024-03-17T06:25:54;11.23;;;4.55;;
84796;SDS011;75028;51.374;21.078;2024-03-17T06:28:21;11.70;;;4.72;;
84796;SDS011;75028;51.374;21.078;2024-03-17T06:30:58;10.85;;;4.57;;
84796;SDS011;75028;51.374;21.078;2024-03-17T06:33:25;10.55;;;4.85;;
84796;SDS011;75028;51.374;21.078;2024-03-17T06:35:53;14.45;;;4.90;;
84796;SDS011;75028;51.374;21.078;2024-03-17T06:38:20;9.65;;;4.60;;
84796;SDS011;75028;51.374;21.078;2024-03-17T06:40:50;18.02;;;5.18;;
84796;SDS011;75028;51.374;21.078;2024-03-17T06:43:17;14.00;;;6.05;;
84796;SDS011;75028;51.374;21.078;2024-03-17T06:45:44;13.57;;;5.07;;
84796;SDS011;75028;51.374;21.078;2024-03-17T06:48:19;13.63;;;5.93;;
84796;SDS011;75028;51.374;21.078;2024-03-17T06:50:44;14.40;;;5.55;;
84796;SDS011;75028;51.374;21.078;2024-03-17T06:53:11;21.52;;;6.93;;
84796;SDS011;75028;51.374;21.078;2024-03-17T06:55:37;18.17;;;6.97;;
84796;SDS011;75028;51.374;21.078;2024-03-17T06:58:03;17.75;;;7.35;;
84796;SDS011;75028;51.374;21.078;2024-03-17T07:00:29;17.38;;;8.15;;
84796;SDS011;75028;51.374;21.078;2024-03-17T07:02:55;19.02;;;7.60;;
84796;SDS011;75028;51.374;21.078;2024-03-17T07:05:23;14.80;;;7.22;;
84796;SDS011;75028;51.374;21.078;2024-03-17T07:07:49;18.50;;;6.50;;
84796;SDS011;75028;51.374;21.078;2024-03-17T07:10:15;16.30;;;6.75;;
84796;SDS011;75028;51.374;21.078;2024-03-17T07:12:41;14.35;;;7.30;;
84796;SDS011;75028;51.374;21.078;2024-03-17T07:15:07;11.40;;;6.22;;
84796;SDS011;75028;51.374;21.078;2024-03-17T07:17:34;14.10;;;5.32;;
84796;SDS011;75028;51.374;21.078;2024-03-17T07:20:00;14.35;;;5.57;;
84796;SDS011;75028;51.374;21.078;2024-03-17T07:22:27;14.02;;;4.88;;
84796;SDS011;75028;51.374;21.078;2024-03-17T07:24:53;15.07;;;5.10;;
84796;SDS011;75028;51.374;21.078;2024-03-17T07:27:27;13.90;;;5.43;;
84796;SDS011;75028;51.374;21.078;2024-03-17T07:29:54;16.08;;;5.75;;
84796;SDS011;75028;51.374;21.078;2024-03-17T07:32:20;11.65;;;5.38;;
84796;SDS011;75028;51.374;21.078;2024-03-17T07:34:47;13.50;;;4.63;;
84796;SDS011;75028;51.374;21.078;2024-03-17T07:37:16;14.68;;;4.07;;
84796;SDS011;75028;51.374;21.078;2024-03-17T07:39:42;13.57;;;5.10;;
84796;SDS011;75028;51.374;21.078;2024-03-17T07:42:08;11.52;;;4.90;;
84796;SDS011;75028;51.374;21.078;2024-03-17T07:44:34;18.08;;;5.50;;
84796;SDS011;75028;51.374;21.078;2024-03-17T07:47:01;16.58;;;5.40;;
84796;SDS011;75028;51.374;21.078;2024-03-17T07:49:29;12.25;;;3.80;;
84796;SDS011;75028;51.374;21.078;2024-03-17T07:51:56;16.67;;;5.28;;
84796;SDS011;75028;51.374;21.078;2024-03-17T07:54:23;11.07;;;4.13;;
84796;SDS011;75028;51.374;21.078;2024-03-17T07:56:50;11.75;;;5.57;;
84796;SDS011;75028;51.374;21.078;2024-03-17T07:59:17;13.48;;;5.60;;
84796;SDS011;75028;51.374;21.078;2024-03-17T08:01:44;17.35;;;5.57;;
84796;SDS011;75028;51.374;21.078;2024-03-17T08:04:10;12.77;;;5.22;;
84796;SDS011;75028;51.374;21.078;2024-03-17T08:06:38;14.35;;;4.28;;
84796;SDS011;75028;51.374;21.078;2024-03-17T08:09:06;9.18;;;4.78;;
84796;SDS011;75028;51.374;21.078;2024-03-17T08:11:34;9.55;;;3.58;;
84796;SDS011;75028;51.374;21.078;2024-03-17T08:14:00;11.20;;;3.65;;
84796;SDS011;75028;51.374;21.078;2024-03-17T08:16:27;8.18;;;3.20;;
84796;SDS011;75028;51.374;21.078;2024-03-17T08:18:55;8.68;;;3.10;;
84796;SDS011;75028;51.374;21.078;2024-03-17T08:21:22;10.40;;;3.35;;
84796;SDS011;75028;51.374;21.078;2024-03-17T08:26:14;7.13;;;3.00;;
84796;SDS011;75028;51.374;21.078;2024-03-17T08:28:40;7.30;;;3.17;;
84796;SDS011;75028;51.374;21.078;2024-03-17T08:31:06;10.63;;;3.33;;
84796;SDS011;75028;51.374;21.078;2024-03-17T08:33:34;11.52;;;2.92;;
84796;SDS011;75028;51.374;21.078;2024-03-17T08:36:01;9.30;;;3.28;;
84796;SDS011;75028;51.374;21.078;2024-03-17T08:38:29;9.85;;;3.28;;
84796;SDS011;75028;51.374;21.078;2024-03-17T08:40:57;8.68;;;3.40;;
84796;SDS011;75028;51.374;21.078;2024-03-17T08:43:27;6.82;;;3.50;;
84796;SDS011;75028;51.374;21.078;2024-03-17T08:45:55;18.70;;;3.97;;
84796;SDS011;75028;51.374;21.078;2024-03-17T08:48:24;17.30;;;3.42;;
84796;SDS011;75028;51.374;21.078;2024-03-17T08:50:52;11.13;;;3.63;;
84796;SDS011;75028;51.374;21.078;2024-03-17T08:53:19;6.80;;;3.00;;
84796;SDS011;75028;51.374;21.078;2024-03-17T08:55:46;7.35;;;3.35;;
84796;SDS011;75028;51.374;21.078;2024-03-17T08:58:12;12.57;;;3.83;;
84796;SDS011;75028;51.374;21.078;2024-03-17T09:00:39;11.68;;;3.80;;
84796;SDS011;75028;51.374;21.078;2024-03-17T09:03:07;12.05;;;4.05;;
84796;SDS011;75028;51.374;21.078;2024-03-17T09:05:38;6.47;;;3.03;;
84796;SDS011;75028;51.374;21.078;2024-03-17T09:08:07;9.73;;;2.95;;
84796;SDS011;75028;51.374;21.078;2024-03-17T09:10:40;7.60;;;3.20;;
84796;SDS011;75028;51.374;21.078;2024-03-17T09:13:09;12.80;;;4.45;;
84796;SDS011;75028;51.374;21.078;2024-03-17T09:15:40;13.27;;;4.00;;
84796;SDS011;75028;51.374;21.078;2024-03-17T09:18:06;9.55;;;3.38;;
84796;SDS011;75028;51.374;21.078;2024-03-17T09:20:33;9.10;;;3.67;;
84796;SDS011;75028;51.374;21.078;2024-03-17T09:22:58;6.05;;;3.10;;
84796;SDS011;75028;51.374;21.078;2024-03-17T09:25:24;14.93;;;3.88;;
84796;SDS011;75028;51.374;21.078;2024-03-17T09:27:51;8.15;;;3.15;;
84796;SDS011;75028;51.374;21.078;2024-03-17T09:30:17;8.80;;;3.58;;
84796;SDS011;75028;51.374;21.078;2024-03-17T09:32:43;10.30;;;2.97;;
84796;SDS011;75028;51.374;21.078;2024-03-17T09:35:10;7.28;;;2.90;;
84796;SDS011;75028;51.374;21.078;2024-03-17T09:37:36;7.72;;;2.92;;
84796;SDS011;75028;51.374;21.078;2024-03-17T09:40:02;8.00;;;2.83;;
84796;SDS011;75028;51.374;21.078;2024-03-17T09:42:31;9.60;;;3.25;;
84796;SDS011;75028;51.374;21.078;2024-03-17T09:44:58;12.70;;;3.80;;
84796;SDS011;75028;51.374;21.078;2024-03-17T09:47:24;7.63;;;3.45;;
84796;SDS011;75028;51.374;21.078;2024-03-17T09:49:52;14.50;;;3.60;;
84796;SDS011;75028;51.374;21.078;2024-03-17T09:52:22;7.03;;;3.08;;
84796;SDS011;75028;51.374;21.078;2024-03-17T09:54:51;11.50;;;4.00;;
84796;SDS011;75028;51.374;21.078;2024-03-17T09:57:35;12.95;;;3.20;;
84796;SDS011;75028;51.374;21.078;2024-03-17T10:00:09;7.63;;;3.10;;
84796;SDS011;75028;51.374;21.078;2024-03-17T10:02:43;9.75;;;3.47;;
84796;SDS011;75028;51.374;21.078;2024-03-17T10:05:20;10.32;;;3.53;;
84796;SDS011;75028;51.374;21.078;2024-03-17T10:07:47;12.07;;;4.00;;
84796;SDS011;75028;51.374;21.078;2024-03-17T10:10:15;10.68;;;3.17;;
84796;SDS011;75028;51.374;21.078;2024-03-17T10:12:42;7.60;;;3.00;;
84796;SDS011;75028;51.374;21.078;2024-03-17T10:15:10;6.68;;;2.80;;
84796;SDS011;75028;51.374;21.078;2024-03-17T10:17:38;9.25;;;2.95;;
84796;SDS011;75028;51.374;21.078;2024-03-17T10:20:14;7.95;;;2.70;;
84796;SDS011;75028;51.374;21.078;2024-03-17T10:23:04;9.07;;;2.63;;
84796;SDS011;75028;51.374;21.078;2024-03-17T10:25:33;10.85;;;3.53;;
84796;SDS011;75028;51.374;21.078;2024-03-17T10:28:04;10.45;;;2.80;;
84796;SDS011;75028;51.374;21.078;2024-03-17T10:30:37;7.28;;;2.78;;
84796;SDS011;75028;51.374;21.078;2024-03-17T10:33:05;8.27;;;3.53;;
84796;SDS011;75028;51.374;21.078;2024-03-17T10:35:35;10.13;;;3.95;;
84796;SDS011;75028;51.374;21.078;2024-03-17T10:38:06;11.45;;;3.55;;
84796;SDS011;75028;51.374;21.078;2024-03-17T10:40:34;7.13;;;3.15;;
84796;SDS011;75028;51.374;21.078;2024-03-17T10:43:04;9.70;;;2.70;;
84796;SDS011;75028;51.374;21.078;2024-03-17T10:45:31;7.93;;;3.45;;
84796;SDS011;75028;51.374;21.078;2024-03-17T10:48:06;6.05;;;2.80;;
84796;SDS011;75028;51.374;21.078;2024-03-17T10:50:35;10.82;;;2.72;;
84796;SDS011;75028;51.374;21.078;2024-03-17T10:53:03;7.68;;;2.70;;
84796;SDS011;75028;51.374;21.078;2024-03-17T10:55:43;9.77;;;2.65;;
84796;SDS011;75028;51.374;21.078;2024-03-17T11:00:49;9.68;;;2.72;;
84796;SDS011;75028;51.374;21.078;2024-03-17T11:03:16;7.15;;;2.53;;
84796;SDS011;75028;51.374;21.078;2024-03-17T11:05:46;9.63;;;2.50;;
84796;SDS011;75028;51.374;21.078;2024-03-17T11:08:15;5.60;;;2.70;;
84796;SDS011;75028;51.374;21.078;2024-03-17T11:10:48;7.15;;;2.55;;
84796;SDS011;75028;51.374;21.078;2024-03-17T11:13:28;6.45;;;2.85;;
84796;SDS011;75028;51.374;21.078;2024-03-17T11:15:56;3.95;;;1.92;;
84796;SDS011;75028;51.374;21.078;2024-03-17T11:18:36;5.38;;;2.38;;
84796;SDS011;75028;51.374;21.078;2024-03-17T11:21:04;4.00;;;2.03;;
84796;SDS011;75028;51.374;21.078;2024-03-17T11:23:56;7.35;;;2.55;;
84796;SDS011;75028;51.374;21.078;2024-03-17T11:26:28;5.60;;;2.45;;
84796;SDS011;75028;51.374;21.078;2024-03-17T11:28:56;5.65;;;2.90;;
84796;SDS011;75028;51.374;21.078;2024-03-17T11:31:37;8.20;;;3.08;;
84796;SDS011;75028;51.374;21.078;2024-03-17T11:37:00;4.63;;;2.80;;
84796;SDS011;75028;51.374;21.078;2024-03-17T11:39:50;6.10;;;2.35;;
84796;SDS011;75028;51.374;21.078;2024-03-17T11:42:18;7.53;;;3.35;;
84796;SDS011;75028;51.374;21.078;2024-03-17T11:44:55;6.28;;;2.55;;
84796;SDS011;75028;51.374;21.078;2024-03-17T11:47:32;6.82;;;2.55;;
84796;SDS011;75028;51.374;21.078;2024-03-17T11:50:01;6.60;;;2.85;;
84796;SDS011;75028;51.374;21.078;2024-03-17T11:52:29;11.07;;;3.30;;
84796;SDS011;75028;51.374;21.078;2024-03-17T11:54:55;7.55;;;2.85;;
84796;SDS011;75028;51.374;21.078;2024-03-17T11:57:22;8.95;;;3.03;;
84796;SDS011;75028;51.374;21.078;2024-03-17T11:59:50;5.85;;;2.65;;
84796;SDS011;75028;51.374;21.078;2024-03-17T12:02:30;7.47;;;3.25;;
84796;SDS011;75028;51.374;21.078;2024-03-17T12:04:58;6.80;;;2.92;;
84796;SDS011;75028;51.374;21.078;2024-03-17T12:07:27;8.68;;;3.10;;
84796;SDS011;75028;51.374;21.078;2024-03-17T12:09:55;8.45;;;3.20;;
84796;SDS011;75028;51.374;21.078;2024-03-17T12:12:24;9.20;;;3.10;;
84796;SDS011;75028;51.374;21.078;2024-03-17T12:15:00;5.32;;;2.90;;
84796;SDS011;75028;51.374;21.078;2024-03-17T12:17:28;5.70;;;2.80;;
84796;SDS011;75028;51.374;21.078;2024-03-17T12:19:54;10.60;;;2.80;;
84796;SDS011;75028;51.374;21.078;2024-03-17T12:22:24;6.70;;;2.85;;
84796;SDS011;75028;51.374;21.078;2024-03-17T12:24:53;11.77;;;3.92;;
84796;SDS011;75028;51.374;21.078;2024-03-17T12:27:24;8.45;;;2.78;;
84796;SDS011;75028;51.374;21.078;2024-03-17T12:29:52;6.20;;;3.33;;
84796;SDS011;75028;51.374;21.078;2024-03-17T12:32:21;6.65;;;3.00;;
84796;SDS011;75028;51.374;21.078;2024-03-17T12:34:54;8.50;;;3.88;;
84796;SDS011;75028;51.374;21.078;2024-03-17T12:37:24;10.27;;;3.10;;
84796;SDS011;75028;51.374;21.078;2024-03-17T12:39:56;11.40;;;3.30;;
84796;SDS011;75028;51.374;21.078;2024-03-17T12:42:28;12.38;;;3.83;;
84796;SDS011;75028;51.374;21.078;2024-03-17T12:44:56;11.75;;;3.47;;
84796;SDS011;75028;51.374;21.078;2024-03-17T12:47:26;13.65;;;3.63;;
84796;SDS011;75028;51.374;21.078;2024-03-17T12:49:54;4.82;;;2.78;;
84796;SDS011;75028;51.374;21.078;2024-03-17T12:54:57;8.93;;;3.45;;
84796;SDS011;75028;51.374;21.078;2024-03-17T13:01:03;11.88;;;3.97;;
84796;SDS011;75028;51.374;21.078;2024-03-17T13:03:33;10.32;;;4.30;;
84796;SDS011;75028;51.374;21.078;2024-03-17T13:06:01;9.55;;;3.83;;
84796;SDS011;75028;51.374;21.078;2024-03-17T13:08:30;11.07;;;4.15;;
84796;SDS011;75028;51.374;21.078;2024-03-17T13:10:57;11.13;;;4.70;;
84796;SDS011;75028;51.374;21.078;2024-03-17T13:13:24;12.82;;;5.63;;
84796;SDS011;75028;51.374;21.078;2024-03-17T13:15:50;10.52;;;4.68;;
84796;SDS011;75028;51.374;21.078;2024-03-17T13:20:47;16.70;;;5.28;;
84796;SDS011;75028;51.374;21.078;2024-03-17T13:23:17;12.52;;;4.38;;
84796;SDS011;75028;51.374;21.078;2024-03-17T13:25:43;14.02;;;5.43;;
84796;SDS011;75028;51.374;21.078;2024-03-17T13:28:10;11.10;;;4.32;;
84796;SDS011;75028;51.374;21.078;2024-03-17T13:30:36;11.52;;;4.63;;
84796;SDS011;75028;51.374;21.078;2024-03-17T13:33:03;12.75;;;6.15;;
84796;SDS011;75028;51.374;21.078;2024-03-17T13:35:37;15.00;;;6.00;;
84796;SDS011;75028;51.374;21.078;2024-03-17T13:38:05;14.27;;;5.63;;
84796;SDS011;75028;51.374;21.078;2024-03-17T13:40:32;12.77;;;5.18;;
84796;SDS011;75028;51.374;21.078;2024-03-17T13:42:59;15.95;;;6.20;;
84796;SDS011;75028;51.374;21.078;2024-03-17T13:45:27;17.67;;;5.57;;
84796;SDS011;75028;51.374;21.078;2024-03-17T13:47:59;23.00;;;5.97;;
84796;SDS011;75028;51.374;21.078;2024-03-17T13:50:26;15.23;;;4.50;;
84796;SDS011;75028;51.374;21.078;2024-03-17T13:52:52;7.38;;;4.53;;
84796;SDS011;75028;51.374;21.078;2024-03-17T13:55:19;10.15;;;4.47;;
84796;SDS011;75028;51.374;21.078;2024-03-17T13:57:49;7.13;;;4.07;;
84796;SDS011;75028;51.374;21.078;2024-03-17T14:00:22;10.60;;;4.28;;
84796;SDS011;75028;51.374;21.078;2024-03-17T14:02:50;13.50;;;4.53;;
84796;SDS011;75028;51.374;21.078;2024-03-17T14:05:19;17.75;;;5.93;;
84796;SDS011;75028;51.374;21.078;2024-03-17T14:07:47;5.63;;;3.35;;
84796;SDS011;75028;51.374;21.078;2024-03-17T14:10:16;9.45;;;3.58;;
84796;SDS011;75028;51.374;21.078;2024-03-17T14:12:45;9.27;;;3.45;;
84796;SDS011;75028;51.374;21.078;2024-03-17T14:15:12;9.63;;;3.67;;
84796;SDS011;75028;51.374;21.078;2024-03-17T14:17:41;14.57;;;4.90;;
84796;SDS011;75028;51.374;21.078;2024-03-17T14:20:08;11.40;;;4.43;;
84796;SDS011;75028;51.374;21.078;2024-03-17T14:22:38;9.00;;;4.32;;
84796;SDS011;75028;51.374;21.078;2024-03-17T14:25:08;9.52;;;4.32;;
84796;SDS011;75028;51.374;21.078;2024-03-17T14:27:44;9.68;;;4.38;;
84796;SDS011;75028;51.374;21.078;2024-03-17T14:32:40;12.35;;;3.70;;
84796;SDS011;75028;51.374;21.078;2024-03-17T14:35:06;10.38;;;3.88;;
84796;SDS011;75028;51.374;21.078;2024-03-17T14:37:35;9.85;;;4.82;;
84796;SDS011;75028;51.374;21.078;2024-03-17T14:40:01;8.23;;;4.13;;
84796;SDS011;75028;51.374;21.078;2024-03-17T14:42:32;9.90;;;4.25;;
84796;SDS011;75028;51.374;21.078;2024-03-17T14:44:58;10.93;;;4.03;;
84796;SDS011;75028;51.374;21.078;2024-03-17T14:47:26;7.20;;;3.63;;
84796;SDS011;75028;51.374;21.078;2024-03-17T14:49:52;8.18;;;4.18;;
84796;SDS011;75028;51.374;21.078;2024-03-17T14:52:18;12.25;;;3.70;;
84796;SDS011;75028;51.374;21.078;2024-03-17T14:54:44;8.38;;;4.05;;
84796;SDS011;75028;51.374;21.078;2024-03-17T14:57:10;10.77;;;4.93;;
84796;SDS011;75028;51.374;21.078;2024-03-17T14:59:37;6.50;;;3.50;;
84796;SDS011;75028;51.374;21.078;2024-03-17T15:02:05;7.05;;;3.50;;
84796;SDS011;75028;51.374;21.078;2024-03-17T15:04:33;7.50;;;3.88;;
84796;SDS011;75028;51.374;21.078;2024-03-17T15:06:59;6.70;;;3.40;;
84796;SDS011;75028;51.374;21.078;2024-03-17T15:09:25;6.85;;;3.72;;
84796;SDS011;75028;51.374;21.078;2024-03-17T15:11:51;7.97;;;3.97;;
84796;SDS011;75028;51.374;21.078;2024-03-17T15:14:17;16.13;;;4.55;;